Bird Island, Oklahoma
Current Conditions -  °F | °C
As of 9:15 AM on Thursday 18 Dec 2014 (Local Time) from KGMJ Reporting Station
Haze Haze  
Wind Chill: 37°   Ceiling: 500
Heat Index: 37°   Visibility: 5mi
Dew Point: 37°   Wind: 3mph
Humidity: 100%   Direction: 170°S
Pressure: 30.21"   Gusts: NA
Location:  36.651°N, 94.9303°W
Report Text: KGMJ 181515Z AUTO 17003KT 5SM BR OVC005 03/03 A3021 RMK AO2
Loading
Personal Weather Stations






























Interactive Weather Map New forecast layout! Learn more

10-Day Weather Forecast

Advertisements
Track Severe Weather on mobile